createdAt,value
2018-10-17T00:02:21.203Z,65.97
2018-10-17T00:04:50.357Z,66.09
2018-10-17T00:07:19.354Z,66.10
2018-10-17T00:09:48.322Z,66.22
2018-10-17T00:12:17.261Z,66.36
2018-10-17T00:14:46.218Z,65.90
2018-10-17T00:17:15.178Z,65.30
2018-10-17T00:19:44.111Z,65.20
2018-10-17T00:22:13.038Z,65.10
2018-10-17T00:24:41.986Z,64.90
2018-10-17T00:27:10.905Z,64.46
2018-10-17T00:29:39.854Z,65.04
2018-10-17T00:32:08.776Z,65.08
2018-10-17T00:34:37.730Z,65.05
2018-10-17T00:37:06.652Z,65.02
2018-10-17T00:39:35.611Z,64.69
2018-10-17T00:42:04.557Z,64.70
2018-10-17T00:44:33.517Z,65.12
2018-10-17T00:47:02.495Z,65.17
2018-10-17T00:49:31.422Z,64.94
2018-10-17T00:52:00.354Z,64.93
2018-10-17T00:54:29.318Z,64.74
2018-10-17T00:56:58.239Z,64.30
2018-10-17T00:59:27.293Z,64.31
2018-10-17T01:01:56.227Z,64.65
2018-10-17T01:04:25.169Z,65.05
2018-10-17T01:06:54.128Z,64.42
2018-10-17T01:09:23.059Z,65.33
2018-10-17T01:11:52.011Z,64.99
2018-10-17T01:14:20.969Z,65.59
2018-10-17T01:16:49.954Z,65.95
2018-10-17T01:19:18.902Z,65.54
2018-10-17T01:21:47.869Z,65.11
2018-10-17T01:24:16.817Z,65.08
2018-10-17T01:26:45.781Z,66.32
2018-10-17T01:29:14.802Z,66.14
2018-10-17T01:31:43.705Z,65.59
2018-10-17T01:34:12.641Z,65.10
2018-10-17T01:36:41.617Z,65.46
2018-10-17T01:39:11.502Z,65.15
2018-10-17T01:41:40.491Z,64.97
2018-10-17T01:44:09.609Z,64.20
2018-10-17T01:46:38.569Z,63.64
2018-10-17T01:49:07.563Z,63.79
2018-10-17T01:51:36.510Z,64.75
2018-10-17T01:54:05.481Z,64.65
2018-10-17T01:56:34.442Z,64.46
2018-10-17T01:59:03.498Z,64.27
2018-10-17T02:01:32.397Z,63.74
2018-10-17T02:04:01.343Z,64.61
2018-10-17T02:06:30.306Z,63.92
2018-10-17T02:08:59.238Z,63.89
2018-10-17T02:11:28.199Z,64.20
2018-10-17T02:13:57.158Z,63.86
2018-10-17T02:16:26.114Z,64.46
2018-10-17T02:18:55.073Z,64.72
2018-10-17T02:21:24.002Z,64.00
2018-10-17T02:23:52.941Z,64.36
2018-10-17T02:26:21.885Z,64.26
2018-10-17T02:28:50.811Z,64.34
2018-10-17T02:31:19.869Z,64.72
2018-10-17T02:33:48.714Z,65.29
2018-10-17T02:36:17.630Z,64.87
2018-10-17T02:38:46.590Z,64.50
2018-10-17T02:41:15.537Z,64.94
2018-10-17T02:43:44.509Z,64.88
2018-10-17T02:46:13.454Z,64.87
2018-10-17T02:48:42.395Z,64.90
2018-10-17T02:51:11.325Z,64.66
2018-10-17T02:53:40.274Z,64.35
2018-10-17T02:56:09.201Z,63.99
2018-10-17T02:58:38.162Z,64.04
2018-10-17T03:01:07.165Z,64.65
2018-10-17T03:03:36.132Z,65.00
2018-10-17T03:06:05.087Z,65.14
2018-10-17T03:08:34.044Z,64.57
2018-10-17T03:11:02.994Z,65.25
2018-10-17T03:13:31.976Z,65.42
2018-10-17T03:16:00.882Z,65.31
2018-10-17T03:18:29.847Z,65.14
2018-10-17T03:20:58.778Z,65.91
2018-10-17T03:23:27.746Z,66.22
2018-10-17T03:25:56.688Z,66.16
2018-10-17T03:28:25.883Z,65.93
2018-10-17T03:30:54.816Z,65.79
2018-10-17T03:33:23.771Z,65.98
2018-10-17T03:35:52.720Z,65.80
2018-10-17T03:38:21.670Z,65.22
2018-10-17T03:40:50.595Z,65.15
2018-10-17T03:43:19.523Z,65.14
2018-10-17T03:45:48.448Z,64.88
2018-10-17T03:48:17.375Z,64.95
2018-10-17T03:50:46.290Z,64.87
2018-10-17T03:53:15.335Z,65.20
2018-10-17T03:55:44.192Z,64.99
2018-10-17T03:58:13.139Z,64.53
2018-10-17T04:00:42.079Z,64.69
2018-10-17T04:03:11.107Z,64.16
2018-10-17T04:05:39.995Z,65.25
2018-10-17T04:08:08.927Z,63.86
2018-10-17T04:10:37.870Z,64.54
2018-10-17T04:13:06.828Z,64.20
2018-10-17T04:15:35.797Z,64.68
2018-10-17T04:18:04.719Z,64.63
2018-10-17T04:20:33.702Z,64.40
2018-10-17T04:23:02.699Z,64.87
2018-10-17T04:25:31.606Z,65.89
2018-10-17T04:28:00.538Z,65.71
2018-10-17T04:30:29.482Z,66.35
2018-10-17T04:32:58.446Z,66.03
2018-10-17T04:35:27.398Z,66.36
2018-10-17T04:37:56.354Z,65.88
2018-10-17T04:40:25.299Z,65.87
2018-10-17T04:42:54.294Z,66.09
2018-10-17T04:45:23.198Z,65.33
2018-10-17T04:47:52.118Z,65.59
2018-10-17T04:50:21.074Z,65.76
2018-10-17T04:52:50.026Z,66.01
2018-10-17T04:55:19.127Z,66.08
2018-10-17T04:57:48.138Z,65.78
2018-10-17T05:00:17.162Z,65.86
2018-10-17T05:02:46.090Z,65.95
2018-10-17T05:05:15.131Z,65.98
2018-10-17T05:07:44.037Z,66.19
2018-10-17T05:10:12.982Z,66.02
2018-10-17T05:12:41.922Z,67.03
2018-10-17T05:15:10.866Z,67.18
2018-10-17T05:17:39.842Z,66.93
2018-10-17T05:20:08.818Z,66.49
2018-10-17T05:22:37.800Z,66.81
2018-10-17T05:25:07.529Z,66.53
2018-10-17T05:27:36.803Z,67.26
2018-10-17T05:30:06.947Z,66.71
2018-10-17T05:32:35.979Z,66.78
2018-10-17T05:35:05.565Z,66.92
2018-10-17T05:37:34.557Z,66.81
2018-10-17T05:40:03.550Z,66.21
2018-10-17T05:42:32.510Z,66.20
2018-10-17T05:45:01.459Z,65.74
2018-10-17T05:47:30.433Z,65.47
2018-10-17T05:49:59.421Z,65.95
2018-10-17T05:52:28.407Z,66.30
2018-10-17T05:54:57.368Z,67.17
2018-10-17T05:57:26.330Z,67.47
2018-10-17T05:59:55.286Z,68.40
2018-10-17T06:02:27.710Z,68.21
2018-10-17T06:04:56.641Z,67.82
2018-10-17T06:07:25.650Z,67.74
2018-10-17T06:09:54.612Z,67.15
2018-10-17T06:12:23.592Z,67.12
2018-10-17T06:14:52.543Z,66.92
2018-10-17T06:17:21.725Z,66.27
2018-10-17T06:19:50.766Z,66.38
2018-10-17T06:22:19.773Z,66.58
2018-10-17T06:24:48.765Z,66.13
2018-10-17T06:27:17.746Z,66.60
2018-10-17T06:29:46.718Z,66.65
2018-10-17T06:32:15.725Z,66.68
2018-10-17T06:34:44.702Z,66.64
2018-10-17T06:37:13.787Z,66.82
2018-10-17T06:39:42.705Z,66.90
2018-10-17T06:42:11.701Z,67.54
2018-10-17T06:44:40.653Z,67.37
2018-10-17T06:47:09.769Z,67.76
2018-10-17T06:49:38.639Z,66.10
2018-10-17T06:52:07.590Z,66.45
2018-10-17T06:54:36.851Z,66.41
2018-10-17T06:57:06.090Z,67.18
2018-10-17T06:59:35.070Z,66.77
2018-10-17T07:02:04.248Z,66.79
2018-10-17T07:04:33.257Z,66.89
2018-10-17T07:07:02.306Z,67.28
2018-10-17T07:09:31.191Z,67.55
2018-10-17T07:12:00.142Z,66.75
2018-10-17T07:14:29.934Z,66.75
2018-10-17T07:16:59.890Z,67.69
2018-10-17T07:19:29.026Z,68.03
2018-10-17T07:21:58.303Z,68.18
2018-10-17T07:24:27.290Z,68.90
2018-10-17T07:26:56.319Z,68.63
2018-10-17T07:29:25.421Z,68.50
2018-10-17T07:31:54.258Z,69.13
2018-10-17T07:34:23.243Z,68.95
2018-10-17T07:36:52.235Z,69.04
2018-10-17T07:39:21.356Z,68.58
2018-10-17T07:41:50.195Z,67.87
2018-10-17T07:44:19.190Z,68.46
2018-10-17T07:46:48.219Z,67.91
2018-10-17T07:49:17.239Z,68.21
2018-10-17T07:51:46.188Z,68.45
2018-10-17T07:54:15.335Z,67.84
2018-10-17T07:56:44.130Z,68.08
2018-10-17T07:59:13.111Z,68.62
2018-10-17T08:01:42.067Z,67.83
2018-10-17T08:04:11.035Z,68.15
2018-10-17T08:06:40.590Z,68.27
2018-10-17T08:09:10.610Z,68.47
2018-10-17T08:11:39.876Z,68.23
2018-10-17T08:14:09.056Z,67.91
2018-10-17T08:16:37.989Z,67.88
2018-10-17T08:19:06.955Z,68.55
2018-10-17T08:21:35.919Z,68.08
2018-10-17T08:24:04.907Z,68.68
2018-10-17T08:26:33.831Z,68.53
2018-10-17T08:29:02.770Z,69.52
2018-10-17T08:31:31.710Z,68.38
2018-10-17T08:34:00.710Z,68.68
2018-10-17T08:36:30.072Z,68.65
2018-10-17T08:38:58.627Z,69.20
2018-10-17T08:41:27.599Z,69.53
2018-10-17T08:43:56.583Z,69.10
2018-10-17T08:46:25.532Z,69.07
2018-10-17T08:48:54.466Z,69.54
2018-10-17T08:51:23.410Z,69.06
2018-10-17T08:53:52.339Z,68.41
2018-10-17T08:56:21.320Z,69.18
2018-10-17T08:58:50.251Z,68.42
2018-10-17T09:01:19.207Z,67.76
2018-10-17T09:03:48.139Z,67.47
2018-10-17T09:06:17.156Z,68.66
2018-10-17T09:08:46.058Z,68.89
2018-10-17T09:11:15.022Z,68.47
2018-10-17T09:13:43.966Z,67.45
2018-10-17T09:16:13.050Z,67.88
2018-10-17T09:18:41.903Z,68.23
2018-10-17T09:21:11.089Z,68.38
2018-10-17T09:23:39.794Z,68.36
2018-10-17T09:26:08.751Z,67.96
2018-10-17T09:28:37.670Z,66.81
2018-10-17T09:31:06.732Z,66.54
2018-10-17T09:33:35.646Z,66.01
2018-10-17T09:36:04.881Z,66.58
2018-10-17T09:38:33.791Z,65.94
2018-10-17T09:41:03.251Z,65.53
2018-10-17T09:43:32.199Z,64.92
2018-10-17T09:46:01.161Z,66.13
2018-10-17T09:48:30.098Z,65.79
2018-10-17T09:50:59.034Z,65.71
2018-10-17T09:53:28.134Z,66.50
2018-10-17T09:55:56.972Z,65.12
2018-10-17T09:58:25.922Z,65.19
2018-10-17T10:01:00.111Z,65.73
2018-10-17T10:03:29.046Z,65.74
2018-10-17T10:05:58.001Z,66.65
2018-10-17T10:08:27.154Z,65.94
2018-10-17T10:10:56.117Z,65.19
2018-10-17T10:13:25.056Z,64.44
2018-10-17T10:15:54.075Z,65.32
2018-10-17T10:18:23.023Z,65.25
2018-10-17T10:20:51.957Z,65.45
2018-10-17T10:23:20.912Z,64.28
2018-10-17T10:25:49.845Z,64.11
2018-10-17T10:28:18.928Z,63.92
2018-10-17T10:30:47.769Z,63.56
2018-10-17T10:33:16.709Z,63.57
2018-10-17T10:35:45.698Z,62.19
2018-10-17T10:38:14.655Z,61.38
2018-10-17T10:40:43.628Z,60.11
2018-10-17T10:43:12.567Z,60.79
2018-10-17T10:45:41.594Z,60.14
2018-10-17T10:48:10.648Z,58.96
2018-10-17T10:50:39.519Z,58.63
2018-10-17T10:53:08.471Z,58.46
2018-10-17T10:55:37.431Z,57.74
2018-10-17T10:58:06.499Z,57.86
2018-10-17T11:00:35.375Z,57.77
2018-10-17T11:03:04.353Z,57.53
2018-10-17T11:05:33.486Z,57.79
2018-10-17T11:08:02.285Z,56.58
2018-10-17T11:10:31.306Z,56.96
2018-10-17T11:13:00.470Z,56.48
2018-10-17T11:15:29.437Z,55.65
2018-10-17T11:17:58.450Z,55.31
2018-10-17T11:20:27.411Z,54.29
2018-10-17T11:22:56.372Z,54.59
2018-10-17T11:25:25.358Z,52.40
2018-10-17T11:27:54.311Z,50.67
2018-10-17T11:30:23.266Z,48.73
2018-10-17T11:32:52.316Z,48.91
2018-10-17T11:35:21.270Z,51.42
2018-10-17T11:37:50.251Z,48.32
2018-10-17T11:40:19.299Z,49.13
2018-10-17T11:42:48.273Z,47.93
2018-10-17T11:45:17.331Z,48.15
2018-10-17T11:47:46.333Z,47.83
2018-10-17T11:50:15.251Z,46.66
2018-10-17T11:52:44.205Z,46.81
2018-10-17T11:55:13.191Z,48.22
2018-10-17T11:57:42.143Z,49.19
2018-10-17T12:00:12.554Z,49.19
2018-10-17T12:02:41.524Z,48.94
2018-10-17T12:05:13.705Z,48.15
2018-10-17T12:07:42.571Z,48.48
2018-10-17T12:10:11.537Z,47.02
2018-10-17T12:12:40.487Z,47.14
2018-10-17T12:15:13.599Z,46.37
2018-10-17T12:17:42.613Z,46.85
2018-10-17T12:20:13.082Z,47.05
2018-10-17T12:22:42.866Z,45.78
2018-10-17T12:25:12.305Z,45.73
2018-10-17T12:27:41.302Z,46.28
2018-10-17T12:30:12.723Z,46.34
2018-10-17T12:32:41.826Z,46.27
2018-10-17T12:35:11.091Z,45.66
2018-10-17T12:37:40.010Z,45.65
2018-10-17T12:40:10.642Z,45.83
2018-10-17T12:42:39.555Z,45.04
2018-10-17T12:45:08.583Z,44.26
2018-10-17T12:47:37.559Z,45.52
2018-10-17T12:50:07.607Z,45.27
2018-10-17T12:52:36.696Z,44.45
2018-10-17T12:55:06.645Z,45.13
2018-10-17T12:57:35.612Z,44.50
2018-10-17T13:00:04.732Z,44.82
2018-10-17T13:02:33.699Z,45.32
2018-10-17T13:05:02.729Z,43.88
2018-10-17T13:07:31.708Z,43.20
2018-10-17T13:10:00.711Z,43.61
2018-10-17T13:12:29.702Z,43.29
2018-10-17T13:14:58.723Z,44.21
2018-10-17T13:17:27.683Z,44.66
2018-10-17T13:19:56.623Z,44.16
2018-10-17T13:22:25.691Z,44.19
2018-10-17T13:24:54.672Z,43.71
2018-10-17T13:27:23.634Z,43.40
2018-10-17T13:29:52.776Z,43.38
2018-10-17T13:32:21.738Z,44.21
2018-10-17T13:34:52.509Z,44.45
2018-10-17T13:37:21.487Z,44.64
2018-10-17T13:39:50.588Z,43.83
2018-10-17T13:42:19.615Z,44.88
2018-10-17T13:44:49.686Z,44.35
2018-10-17T13:47:18.702Z,44.48
2018-10-17T13:49:47.770Z,44.00
2018-10-17T13:52:16.924Z,44.34
2018-10-17T13:54:45.916Z,44.15
2018-10-17T13:57:14.886Z,42.63
2018-10-17T13:59:44.140Z,43.69
2018-10-17T14:02:13.583Z,44.07
2018-10-17T14:04:42.627Z,43.87
2018-10-17T14:07:13.273Z,44.45
2018-10-17T14:09:42.234Z,44.86
2018-10-17T14:12:11.293Z,43.74
2018-10-17T14:14:40.186Z,44.24
2018-10-17T14:17:09.243Z,43.92
2018-10-17T14:19:38.282Z,44.27
2018-10-17T14:22:08.017Z,43.78
2018-10-17T14:24:37.016Z,44.13
2018-10-17T14:27:06.554Z,44.01
2018-10-17T14:29:35.580Z,43.43
2018-10-17T14:32:04.839Z,43.88
2018-10-17T14:34:34.167Z,44.47
2018-10-17T14:37:03.167Z,43.87
2018-10-17T14:39:32.246Z,45.05
2018-10-17T14:42:01.221Z,45.26
2018-10-17T14:44:30.235Z,45.46
2018-10-17T14:46:59.238Z,45.31
2018-10-17T14:49:28.196Z,46.44
2018-10-17T14:51:58.211Z,45.84
2018-10-17T14:54:27.259Z,45.60
2018-10-17T14:56:56.227Z,46.73
2018-10-17T14:59:25.401Z,47.50
2018-10-17T15:01:54.711Z,47.12
2018-10-17T15:04:23.954Z,47.84
2018-10-17T15:06:52.910Z,47.92
2018-10-17T15:09:21.906Z,47.17
2018-10-17T15:11:51.884Z,47.18
2018-10-17T15:14:21.459Z,47.41
2018-10-17T15:16:50.417Z,47.03
2018-10-17T15:19:19.422Z,47.02
2018-10-17T15:21:48.359Z,46.94
2018-10-17T15:24:17.482Z,47.42
2018-10-17T15:26:46.402Z,47.33
2018-10-17T15:29:15.362Z,47.56
2018-10-17T15:31:44.319Z,47.78
2018-10-17T15:34:14.259Z,47.49
2018-10-17T15:36:43.209Z,48.33
2018-10-17T15:39:12.594Z,48.67
2018-10-17T15:41:41.567Z,49.01
2018-10-17T15:44:10.563Z,49.07
2018-10-17T15:46:39.507Z,48.89
2018-10-17T15:49:08.503Z,48.84
2018-10-17T15:51:37.467Z,49.13
2018-10-17T15:54:06.518Z,49.83
2018-10-17T15:56:35.451Z,49.75
2018-10-17T15:59:05.544Z,49.35
2018-10-17T16:01:34.492Z,49.98
2018-10-17T16:04:03.477Z,50.43
2018-10-17T16:06:33.434Z,50.61
2018-10-17T16:09:05.445Z,50.26
2018-10-17T16:11:39.881Z,51.11
2018-10-17T16:14:10.245Z,50.89
2018-10-17T16:16:43.966Z,51.57
2018-10-17T16:19:14.899Z,51.80
2018-10-17T16:21:46.389Z,51.90
2018-10-17T16:24:16.879Z,52.42
2018-10-17T16:26:49.423Z,52.69
2018-10-17T16:29:20.544Z,53.11
2018-10-17T16:31:50.491Z,52.59
2018-10-17T16:34:21.086Z,53.50
2018-10-17T16:36:52.608Z,53.48
2018-10-17T16:39:22.595Z,54.38
2018-10-17T16:41:52.409Z,54.63
2018-10-17T16:44:22.508Z,54.74
2018-10-17T16:46:53.864Z,54.96
2018-10-17T16:49:25.012Z,55.03
2018-10-17T16:51:55.575Z,55.36
2018-10-17T16:54:25.892Z,55.69
2018-10-17T16:56:56.793Z,55.53
2018-10-17T16:59:28.499Z,55.21
2018-10-17T17:01:58.545Z,56.03
2018-10-17T17:04:28.535Z,55.69
2018-10-17T17:06:58.754Z,56.19
2018-10-17T17:09:30.304Z,56.56
2018-10-17T17:12:02.085Z,56.71
2018-10-17T17:14:33.182Z,56.90
2018-10-17T17:17:05.812Z,57.45
2018-10-17T17:19:36.417Z,57.37
2018-10-17T17:22:08.521Z,57.16
2018-10-17T17:24:39.734Z,57.34
2018-10-17T17:27:11.138Z,57.79
2018-10-17T17:29:41.474Z,57.86
2018-10-17T17:32:11.437Z,58.42
2018-10-17T17:34:45.852Z,58.68
2018-10-17T17:37:16.487Z,58.23
2018-10-17T17:39:46.488Z,58.13
2018-10-17T17:42:19.566Z,58.21
2018-10-17T17:44:52.644Z,58.99
2018-10-17T17:47:23.114Z,58.94
2018-10-17T17:49:53.090Z,58.87
2018-10-17T17:52:23.621Z,58.99
2018-10-17T17:54:54.455Z,58.65
2018-10-17T17:57:25.109Z,58.69
2018-10-17T17:59:55.039Z,59.05
2018-10-17T18:02:26.867Z,59.24
2018-10-17T18:04:57.417Z,59.35
2018-10-17T18:07:28.432Z,59.46
2018-10-17T18:09:58.921Z,59.12
2018-10-17T18:12:31.048Z,60.24
2018-10-17T18:15:01.935Z,60.18
2018-10-17T18:17:32.646Z,60.49
2018-10-17T18:20:03.210Z,60.17
2018-10-17T18:22:33.511Z,60.19
2018-10-17T18:25:03.514Z,60.59
2018-10-17T18:27:34.352Z,60.46
2018-10-17T18:30:04.470Z,60.73
2018-10-17T18:32:34.443Z,60.57
2018-10-17T18:35:04.365Z,60.12
2018-10-17T18:37:37.325Z,60.15
2018-10-17T18:40:09.013Z,60.04
2018-10-17T18:42:40.965Z,59.84
2018-10-17T18:45:12.432Z,59.85
2018-10-17T18:47:42.496Z,59.58
2018-10-17T18:50:12.435Z,59.63
2018-10-17T18:52:43.346Z,59.32
2018-10-17T18:55:13.165Z,60.14
2018-10-17T18:57:42.925Z,60.42
2018-10-17T19:00:13.449Z,60.66
2018-10-17T19:02:43.651Z,59.58
2018-10-17T19:05:13.554Z,59.68
2018-10-17T19:07:44.105Z,60.38
2018-10-17T19:10:14.017Z,60.00
2018-10-17T19:12:43.887Z,60.45
2018-10-17T19:15:14.373Z,59.95
2018-10-17T19:17:44.703Z,60.60
2018-10-17T19:20:14.870Z,61.29
2018-10-17T19:22:44.682Z,60.79
2018-10-17T19:25:14.508Z,60.86
2018-10-17T19:27:45.267Z,60.75
2018-10-17T19:30:15.235Z,60.88
2018-10-17T19:32:45.645Z,61.02
2018-10-17T19:35:15.832Z,60.54
2018-10-17T19:37:45.902Z,61.02
2018-10-17T19:40:16.229Z,60.29
2018-10-17T19:42:46.484Z,60.96
2018-10-17T19:45:17.476Z,61.04
2018-10-17T19:47:48.421Z,60.60
2018-10-17T19:50:19.000Z,61.07
2018-10-17T19:52:48.891Z,60.45
2018-10-17T19:55:19.727Z,61.11
2018-10-17T19:57:49.632Z,60.50
2018-10-17T20:00:20.094Z,61.01
2018-10-17T20:02:51.526Z,61.03
2018-10-17T20:05:24.856Z,60.49
2018-10-17T20:07:55.536Z,60.63
2018-10-17T20:10:25.484Z,61.12
2018-10-17T20:12:55.501Z,61.00
2018-10-17T20:15:25.909Z,60.91
2018-10-17T20:17:56.951Z,60.75
2018-10-17T20:20:29.261Z,60.84
2018-10-17T20:22:59.702Z,61.27
2018-10-17T20:25:30.607Z,61.51
2018-10-17T20:28:03.211Z,61.16
2018-10-17T20:30:34.501Z,61.20
2018-10-17T20:33:05.271Z,61.14
2018-10-17T20:35:36.722Z,60.77
2018-10-17T20:38:07.319Z,61.27
2018-10-17T20:40:38.003Z,61.26
2018-10-17T20:43:08.065Z,61.04
2018-10-17T20:45:38.802Z,61.13
2018-10-17T20:48:08.675Z,60.61
2018-10-17T20:50:38.746Z,61.54
2018-10-17T20:53:09.743Z,61.60
2018-10-17T20:55:43.099Z,61.75
2018-10-17T20:58:13.160Z,61.46
2018-10-17T21:00:43.155Z,61.73
2018-10-17T21:03:13.893Z,61.78
2018-10-17T21:05:44.975Z,61.48
2018-10-17T21:08:15.014Z,61.64
2018-10-17T21:10:47.534Z,61.15
2018-10-17T21:13:17.391Z,62.08
2018-10-17T21:15:47.830Z,61.62
2018-10-17T21:18:17.914Z,61.68
2018-10-17T21:20:48.068Z,61.31
2018-10-17T21:23:17.965Z,61.69
2018-10-17T21:25:48.273Z,62.09
2018-10-17T21:28:20.074Z,61.30
2018-10-17T21:30:50.463Z,61.89
2018-10-17T21:33:23.089Z,61.97
2018-10-17T21:35:54.224Z,62.18
2018-10-17T21:38:24.784Z,62.00
2018-10-17T21:40:54.597Z,62.70
2018-10-17T21:43:25.154Z,61.88
2018-10-17T21:45:57.144Z,61.97
2018-10-17T21:48:28.338Z,62.45
2018-10-17T21:50:58.956Z,63.09
2018-10-17T21:53:31.255Z,62.84
2018-10-17T21:56:01.739Z,63.02
2018-10-17T21:58:32.427Z,63.04
2018-10-17T22:01:04.457Z,63.29
2018-10-17T22:03:33.530Z,62.92
2018-10-17T22:06:02.536Z,62.99
2018-10-17T22:08:31.483Z,63.21
2018-10-17T22:11:00.442Z,63.18
2018-10-17T22:13:29.371Z,63.42
2018-10-17T22:15:58.328Z,63.67
2018-10-17T22:18:27.281Z,63.43
2018-10-17T22:20:56.201Z,62.98
2018-10-17T22:23:25.155Z,63.23
2018-10-17T22:25:54.155Z,63.30
2018-10-17T22:28:23.070Z,63.13
2018-10-17T22:30:52.003Z,62.64
2018-10-17T22:33:20.955Z,62.36
2018-10-17T22:35:49.877Z,62.77
2018-10-17T22:38:18.824Z,62.89
2018-10-17T22:40:47.751Z,62.57
2018-10-17T22:43:16.711Z,62.25
2018-10-17T22:45:45.627Z,62.21
2018-10-17T22:48:14.586Z,62.48
2018-10-17T22:50:43.531Z,62.20
2018-10-17T22:53:12.555Z,62.25
2018-10-17T22:55:41.474Z,62.01
2018-10-17T22:58:10.435Z,61.78
2018-10-17T23:00:39.370Z,61.83
2018-10-17T23:03:08.366Z,61.56
2018-10-17T23:05:37.314Z,61.65
2018-10-17T23:08:06.256Z,61.72
2018-10-17T23:10:35.203Z,61.87
2018-10-17T23:13:04.535Z,61.97
2018-10-17T23:15:33.471Z,62.53
2018-10-17T23:18:02.450Z,62.36
2018-10-17T23:20:31.386Z,62.76
2018-10-17T23:23:00.331Z,62.69
2018-10-17T23:25:29.254Z,62.85
2018-10-17T23:27:58.196Z,63.21
2018-10-17T23:30:27.151Z,63.12
2018-10-17T23:32:56.110Z,62.96
2018-10-17T23:35:25.022Z,63.10
2018-10-17T23:37:53.972Z,63.28
2018-10-17T23:40:22.910Z,62.87
2018-10-17T23:42:51.859Z,62.52
2018-10-17T23:45:20.782Z,62.32
2018-10-17T23:47:49.741Z,62.50
2018-10-17T23:50:18.782Z,62.23
2018-10-17T23:52:47.674Z,61.92
2018-10-17T23:55:16.610Z,62.15
2018-10-17T23:57:45.550Z,62.35
